sensor_id;sensor_type;location;lat;lon;timestamp;P1;durP1;ratioP1;P2;durP2;ratioP2
25609;SDS011;13479;49.044;8.716;2023-01-29T05:01:35;3.97;;;2.60;;
25609;SDS011;13479;49.044;8.716;2023-01-29T05:04:05;3.67;;;2.50;;
25609;SDS011;13479;49.044;8.716;2023-01-29T05:06:35;5.17;;;2.67;;
25609;SDS011;13479;49.044;8.716;2023-01-29T05:09:02;5.03;;;2.60;;
25609;SDS011;13479;49.044;8.716;2023-01-29T05:11:28;5.27;;;2.50;;
25609;SDS011;13479;49.044;8.716;2023-01-29T05:13:56;4.53;;;2.23;;
25609;SDS011;13479;49.044;8.716;2023-01-29T05:16:23;3.97;;;2.50;;
25609;SDS011;13479;49.044;8.716;2023-01-29T05:18:51;4.10;;;2.23;;
25609;SDS011;13479;49.044;8.716;2023-01-29T05:23:45;3.17;;;2.10;;
25609;SDS011;13479;49.044;8.716;2023-01-29T05:26:23;5.23;;;2.90;;
25609;SDS011;13479;49.044;8.716;2023-01-29T05:29:07;4.30;;;2.70;;
25609;SDS011;13479;49.044;8.716;2023-01-29T05:31:32;3.97;;;2.70;;
25609;SDS011;13479;49.044;8.716;2023-01-29T05:33:57;4.43;;;2.90;;
25609;SDS011;13479;49.044;8.716;2023-01-29T05:36:22;5.57;;;3.27;;
25609;SDS011;13479;49.044;8.716;2023-01-29T05:38:49;4.00;;;2.80;;
25609;SDS011;13479;49.044;8.716;2023-01-29T05:41:14;4.03;;;2.93;;
25609;SDS011;13479;49.044;8.716;2023-01-29T05:43:41;4.87;;;2.70;;
25609;SDS011;13479;49.044;8.716;2023-01-29T05:46:06;4.37;;;2.80;;
25609;SDS011;13479;49.044;8.716;2023-01-29T05:48:31;4.20;;;2.80;;
25609;SDS011;13479;49.044;8.716;2023-01-29T05:51:00;5.13;;;2.63;;
25609;SDS011;13479;49.044;8.716;2023-01-29T05:53:27;7.80;;;3.10;;
25609;SDS011;13479;49.044;8.716;2023-01-29T05:55:53;4.97;;;2.90;;
25609;SDS011;13479;49.044;8.716;2023-01-29T05:58:21;4.63;;;2.70;;
25609;SDS011;13479;49.044;8.716;2023-01-29T06:00:47;4.10;;;2.67;;
25609;SDS011;13479;49.044;8.716;2023-01-29T06:03:12;5.63;;;3.20;;
25609;SDS011;13479;49.044;8.716;2023-01-29T06:05:37;5.03;;;3.00;;
25609;SDS011;13479;49.044;8.716;2023-01-29T06:08:03;4.70;;;2.90;;
25609;SDS011;13479;49.044;8.716;2023-01-29T06:10:29;4.67;;;2.20;;
25609;SDS011;13479;49.044;8.716;2023-01-29T06:12:54;3.87;;;2.73;;
25609;SDS011;13479;49.044;8.716;2023-01-29T06:15:19;4.57;;;3.13;;
25609;SDS011;13479;49.044;8.716;2023-01-29T06:17:45;4.73;;;3.40;;
25609;SDS011;13479;49.044;8.716;2023-01-29T06:20:10;5.17;;;3.13;;
25609;SDS011;13479;49.044;8.716;2023-01-29T06:22:36;6.67;;;3.20;;
25609;SDS011;13479;49.044;8.716;2023-01-29T06:25:01;4.70;;;3.00;;
25609;SDS011;13479;49.044;8.716;2023-01-29T06:27:26;4.90;;;2.70;;
25609;SDS011;13479;49.044;8.716;2023-01-29T06:29:52;6.13;;;2.93;;
25609;SDS011;13479;49.044;8.716;2023-01-29T06:32:17;6.33;;;3.00;;
25609;SDS011;13479;49.044;8.716;2023-01-29T06:34:42;4.40;;;2.60;;
25609;SDS011;13479;49.044;8.716;2023-01-29T06:37:07;4.23;;;3.00;;
25609;SDS011;13479;49.044;8.716;2023-01-29T06:39:33;5.83;;;2.77;;
25609;SDS011;13479;49.044;8.716;2023-01-29T06:41:58;4.73;;;2.60;;
25609;SDS011;13479;49.044;8.716;2023-01-29T06:44:23;3.50;;;2.53;;
25609;SDS011;13479;49.044;8.716;2023-01-29T06:46:49;4.63;;;2.70;;
25609;SDS011;13479;49.044;8.716;2023-01-29T06:49:14;5.33;;;2.97;;
25609;SDS011;13479;49.044;8.716;2023-01-29T06:51:39;5.03;;;3.07;;
25609;SDS011;13479;49.044;8.716;2023-01-29T06:54:04;5.03;;;2.73;;
25609;SDS011;13479;49.044;8.716;2023-01-29T06:56:32;6.07;;;2.70;;
25609;SDS011;13479;49.044;8.716;2023-01-29T06:58:57;4.57;;;2.80;;
25609;SDS011;13479;49.044;8.716;2023-01-29T07:01:24;7.40;;;2.93;;
25609;SDS011;13479;49.044;8.716;2023-01-29T07:03:49;5.00;;;2.97;;
25609;SDS011;13479;49.044;8.716;2023-01-29T07:06:15;3.80;;;2.63;;
25609;SDS011;13479;49.044;8.716;2023-01-29T07:08:41;4.80;;;2.90;;
25609;SDS011;13479;49.044;8.716;2023-01-29T07:11:06;5.43;;;2.30;;
25609;SDS011;13479;49.044;8.716;2023-01-29T07:13:32;5.20;;;2.87;;
25609;SDS011;13479;49.044;8.716;2023-01-29T07:15:58;3.87;;;2.67;;
25609;SDS011;13479;49.044;8.716;2023-01-29T07:18:24;4.80;;;2.50;;
25609;SDS011;13479;49.044;8.716;2023-01-29T07:20:50;3.83;;;2.70;;
25609;SDS011;13479;49.044;8.716;2023-01-29T07:23:16;6.67;;;2.87;;
25609;SDS011;13479;49.044;8.716;2023-01-29T07:25:42;5.87;;;3.20;;
25609;SDS011;13479;49.044;8.716;2023-01-29T07:28:07;3.87;;;2.67;;
25609;SDS011;13479;49.044;8.716;2023-01-29T07:30:33;5.50;;;3.10;;
25609;SDS011;13479;49.044;8.716;2023-01-29T07:33:03;3.57;;;2.53;;
25609;SDS011;13479;49.044;8.716;2023-01-29T07:35:29;6.50;;;3.33;;
25609;SDS011;13479;49.044;8.716;2023-01-29T07:37:55;5.17;;;3.20;;
25609;SDS011;13479;49.044;8.716;2023-01-29T07:40:20;6.73;;;3.63;;
25609;SDS011;13479;49.044;8.716;2023-01-29T07:42:45;5.90;;;3.40;;
25609;SDS011;13479;49.044;8.716;2023-01-29T07:45:11;5.07;;;3.07;;
25609;SDS011;13479;49.044;8.716;2023-01-29T07:47:36;4.63;;;2.90;;
25609;SDS011;13479;49.044;8.716;2023-01-29T07:50:02;5.50;;;3.00;;
25609;SDS011;13479;49.044;8.716;2023-01-29T07:52:29;4.43;;;2.70;;
25609;SDS011;13479;49.044;8.716;2023-01-29T07:54:55;6.53;;;2.90;;
25609;SDS011;13479;49.044;8.716;2023-01-29T07:57:20;6.43;;;3.30;;
25609;SDS011;13479;49.044;8.716;2023-01-29T07:59:46;3.50;;;2.40;;
25609;SDS011;13479;49.044;8.716;2023-01-29T08:02:11;8.13;;;2.93;;
25609;SDS011;13479;49.044;8.716;2023-01-29T08:04:36;5.57;;;2.80;;
25609;SDS011;13479;49.044;8.716;2023-01-29T08:07:01;5.07;;;3.10;;
25609;SDS011;13479;49.044;8.716;2023-01-29T08:09:28;6.20;;;3.27;;
25609;SDS011;13479;49.044;8.716;2023-01-29T08:11:53;4.13;;;2.77;;
25609;SDS011;13479;49.044;8.716;2023-01-29T08:14:19;4.63;;;2.80;;
25609;SDS011;13479;49.044;8.716;2023-01-29T08:16:44;5.30;;;3.30;;
25609;SDS011;13479;49.044;8.716;2023-01-29T08:19:09;5.23;;;2.93;;
25609;SDS011;13479;49.044;8.716;2023-01-29T08:21:34;7.27;;;3.33;;
25609;SDS011;13479;49.044;8.716;2023-01-29T08:24:00;6.30;;;3.43;;
25609;SDS011;13479;49.044;8.716;2023-01-29T08:26:25;4.30;;;2.70;;
25609;SDS011;13479;49.044;8.716;2023-01-29T08:28:51;5.40;;;2.83;;
25609;SDS011;13479;49.044;8.716;2023-01-29T08:31:17;5.80;;;3.47;;
25609;SDS011;13479;49.044;8.716;2023-01-29T08:33:47;6.50;;;3.50;;
25609;SDS011;13479;49.044;8.716;2023-01-29T08:36:12;6.33;;;3.30;;
25609;SDS011;13479;49.044;8.716;2023-01-29T08:38:38;6.07;;;3.67;;
25609;SDS011;13479;49.044;8.716;2023-01-29T08:41:05;5.20;;;3.20;;
25609;SDS011;13479;49.044;8.716;2023-01-29T08:43:30;6.77;;;4.00;;
25609;SDS011;13479;49.044;8.716;2023-01-29T08:45:56;5.70;;;3.60;;
25609;SDS011;13479;49.044;8.716;2023-01-29T08:48:21;4.87;;;3.00;;
25609;SDS011;13479;49.044;8.716;2023-01-29T08:50:47;4.37;;;2.83;;
25609;SDS011;13479;49.044;8.716;2023-01-29T08:53:12;3.60;;;2.70;;
25609;SDS011;13479;49.044;8.716;2023-01-29T08:55:38;4.87;;;2.90;;
25609;SDS011;13479;49.044;8.716;2023-01-29T08:58:04;4.57;;;2.60;;
25609;SDS011;13479;49.044;8.716;2023-01-29T09:00:31;4.90;;;2.53;;
25609;SDS011;13479;49.044;8.716;2023-01-29T09:02:57;4.40;;;2.80;;
25609;SDS011;13479;49.044;8.716;2023-01-29T09:05:23;4.10;;;2.60;;
25609;SDS011;13479;49.044;8.716;2023-01-29T09:07:49;4.00;;;2.60;;
25609;SDS011;13479;49.044;8.716;2023-01-29T09:10:14;4.80;;;2.63;;
25609;SDS011;13479;49.044;8.716;2023-01-29T09:12:40;4.73;;;2.70;;
25609;SDS011;13479;49.044;8.716;2023-01-29T09:15:05;4.80;;;2.87;;
25609;SDS011;13479;49.044;8.716;2023-01-29T09:17:31;4.57;;;2.67;;
25609;SDS011;13479;49.044;8.716;2023-01-29T09:19:56;4.53;;;2.60;;
25609;SDS011;13479;49.044;8.716;2023-01-29T09:22:22;4.40;;;2.77;;
25609;SDS011;13479;49.044;8.716;2023-01-29T09:24:47;4.97;;;2.47;;
25609;SDS011;13479;49.044;8.716;2023-01-29T09:27:13;4.67;;;2.73;;
25609;SDS011;13479;49.044;8.716;2023-01-29T09:29:38;4.57;;;2.67;;
25609;SDS011;13479;49.044;8.716;2023-01-29T09:32:03;5.80;;;2.90;;
25609;SDS011;13479;49.044;8.716;2023-01-29T09:34:29;5.30;;;2.80;;
25609;SDS011;13479;49.044;8.716;2023-01-29T09:36:54;4.37;;;2.87;;
25609;SDS011;13479;49.044;8.716;2023-01-29T09:39:19;4.50;;;2.93;;
25609;SDS011;13479;49.044;8.716;2023-01-29T09:47:17;4.77;;;3.00;;
25609;SDS011;13479;49.044;8.716;2023-01-29T09:49:51;5.53;;;3.00;;
25609;SDS011;13479;49.044;8.716;2023-01-29T09:52:29;4.10;;;2.70;;
25609;SDS011;13479;49.044;8.716;2023-01-29T09:57:52;4.63;;;3.00;;
25609;SDS011;13479;49.044;8.716;2023-01-29T10:03:15;6.43;;;3.77;;
25609;SDS011;13479;49.044;8.716;2023-01-29T10:13:39;5.93;;;3.97;;
25609;SDS011;13479;49.044;8.716;2023-01-29T10:16:27;6.43;;;3.90;;
25609;SDS011;13479;49.044;8.716;2023-01-29T10:19:33;5.43;;;3.00;;
25609;SDS011;13479;49.044;8.716;2023-01-29T10:23:09;8.07;;;3.77;;
25609;SDS011;13479;49.044;8.716;2023-01-29T10:25:10;4.37;;;3.17;;
25609;SDS011;13479;49.044;8.716;2023-01-29T10:27:40;5.83;;;3.60;;
25609;SDS011;13479;49.044;8.716;2023-01-29T10:30:20;5.90;;;3.37;;
25609;SDS011;13479;49.044;8.716;2023-01-29T10:33:00;5.80;;;3.43;;
25609;SDS011;13479;49.044;8.716;2023-01-29T10:41:05;6.13;;;3.60;;
25609;SDS011;13479;49.044;8.716;2023-01-29T10:46:18;4.60;;;3.50;;
25609;SDS011;13479;49.044;8.716;2023-01-29T10:48:56;6.43;;;3.53;;
25609;SDS011;13479;49.044;8.716;2023-01-29T10:51:43;5.37;;;3.10;;
25609;SDS011;13479;49.044;8.716;2023-01-29T11:01:47;4.23;;;3.10;;
25609;SDS011;13479;49.044;8.716;2023-01-29T11:04:12;4.20;;;3.10;;
25609;SDS011;13479;49.044;8.716;2023-01-29T11:06:38;7.37;;;3.63;;
25609;SDS011;13479;49.044;8.716;2023-01-29T11:14:44;5.50;;;3.53;;
25609;SDS011;13479;49.044;8.716;2023-01-29T11:17:16;5.13;;;3.57;;
25609;SDS011;13479;49.044;8.716;2023-01-29T11:19:43;6.50;;;3.63;;
25609;SDS011;13479;49.044;8.716;2023-01-29T11:22:14;5.90;;;3.90;;
25609;SDS011;13479;49.044;8.716;2023-01-29T11:24:41;6.23;;;4.30;;
25609;SDS011;13479;49.044;8.716;2023-01-29T11:27:14;6.30;;;4.20;;
25609;SDS011;13479;49.044;8.716;2023-01-29T11:29:47;6.33;;;3.93;;
25609;SDS011;13479;49.044;8.716;2023-01-29T11:32:24;6.17;;;3.80;;
25609;SDS011;13479;49.044;8.716;2023-01-29T11:37:21;5.63;;;3.73;;
25609;SDS011;13479;49.044;8.716;2023-01-29T11:39:47;5.30;;;3.90;;
25609;SDS011;13479;49.044;8.716;2023-01-29T11:42:20;5.40;;;3.70;;
25609;SDS011;13479;49.044;8.716;2023-01-29T11:44:46;7.00;;;3.97;;
25609;SDS011;13479;49.044;8.716;2023-01-29T11:47:24;4.80;;;3.50;;
25609;SDS011;13479;49.044;8.716;2023-01-29T11:49:55;6.30;;;4.17;;
25609;SDS011;13479;49.044;8.716;2023-01-29T11:52:23;6.37;;;3.70;;
25609;SDS011;13479;49.044;8.716;2023-01-29T11:54:53;7.97;;;3.60;;
25609;SDS011;13479;49.044;8.716;2023-01-29T11:57:31;4.97;;;3.20;;
25609;SDS011;13479;49.044;8.716;2023-01-29T12:00:02;5.23;;;3.70;;
25609;SDS011;13479;49.044;8.716;2023-01-29T12:05:23;5.23;;;3.47;;
25609;SDS011;13479;49.044;8.716;2023-01-29T12:07:53;5.00;;;3.53;;
25609;SDS011;13479;49.044;8.716;2023-01-29T12:10:34;8.03;;;3.50;;
25609;SDS011;13479;49.044;8.716;2023-01-29T12:15:33;5.43;;;4.00;;
25609;SDS011;13479;49.044;8.716;2023-01-29T12:20:45;6.40;;;3.60;;
25609;SDS011;13479;49.044;8.716;2023-01-29T12:23:26;6.97;;;3.60;;
25609;SDS011;13479;49.044;8.716;2023-01-29T12:25:57;4.97;;;3.53;;
25609;SDS011;13479;49.044;8.716;2023-01-29T12:31:35;6.53;;;3.70;;
25609;SDS011;13479;49.044;8.716;2023-01-29T12:39:20;5.27;;;3.40;;
25609;SDS011;13479;49.044;8.716;2023-01-29T12:41:56;6.43;;;3.63;;
25609;SDS011;13479;49.044;8.716;2023-01-29T12:47:06;6.40;;;3.50;;
25609;SDS011;13479;49.044;8.716;2023-01-29T12:49:35;5.93;;;3.57;;
25609;SDS011;13479;49.044;8.716;2023-01-29T12:52:09;5.47;;;3.63;;
25609;SDS011;13479;49.044;8.716;2023-01-29T12:57:22;7.07;;;3.70;;
25609;SDS011;13479;49.044;8.716;2023-01-29T12:59:55;6.33;;;4.00;;
25609;SDS011;13479;49.044;8.716;2023-01-29T13:02:35;5.33;;;3.70;;
25609;SDS011;13479;49.044;8.716;2023-01-29T13:05:21;6.37;;;3.67;;
25609;SDS011;13479;49.044;8.716;2023-01-29T13:07:51;6.00;;;4.17;;
25609;SDS011;13479;49.044;8.716;2023-01-29T13:10:26;5.93;;;3.70;;
25609;SDS011;13479;49.044;8.716;2023-01-29T13:13:00;5.00;;;3.70;;
25609;SDS011;13479;49.044;8.716;2023-01-29T13:15:34;6.00;;;3.93;;
25609;SDS011;13479;49.044;8.716;2023-01-29T13:21:07;5.77;;;3.60;;
25609;SDS011;13479;49.044;8.716;2023-01-29T13:23:41;6.10;;;3.90;;
25609;SDS011;13479;49.044;8.716;2023-01-29T13:26:10;6.27;;;3.63;;
25609;SDS011;13479;49.044;8.716;2023-01-29T13:28:37;5.73;;;3.30;;
25609;SDS011;13479;49.044;8.716;2023-01-29T13:34:13;6.67;;;4.10;;
25609;SDS011;13479;49.044;8.716;2023-01-29T13:36:42;7.90;;;4.00;;
25609;SDS011;13479;49.044;8.716;2023-01-29T13:39:15;6.17;;;4.37;;
25609;SDS011;13479;49.044;8.716;2023-01-29T13:44:51;5.70;;;4.30;;
25609;SDS011;13479;49.044;8.716;2023-01-29T13:47:23;6.47;;;4.30;;
25609;SDS011;13479;49.044;8.716;2023-01-29T13:49:55;6.73;;;3.90;;
25609;SDS011;13479;49.044;8.716;2023-01-29T13:52:34;5.77;;;4.30;;
25609;SDS011;13479;49.044;8.716;2023-01-29T14:00:03;6.93;;;4.40;;
25609;SDS011;13479;49.044;8.716;2023-01-29T14:02:29;9.07;;;4.53;;
25609;SDS011;13479;49.044;8.716;2023-01-29T14:07:56;7.93;;;4.20;;
25609;SDS011;13479;49.044;8.716;2023-01-29T14:10:23;7.17;;;4.53;;
25609;SDS011;13479;49.044;8.716;2023-01-29T14:12:50;7.17;;;4.67;;
25609;SDS011;13479;49.044;8.716;2023-01-29T14:15:19;6.77;;;4.47;;
25609;SDS011;13479;49.044;8.716;2023-01-29T14:23:27;7.90;;;4.37;;
25609;SDS011;13479;49.044;8.716;2023-01-29T14:26:01;8.63;;;4.83;;
25609;SDS011;13479;49.044;8.716;2023-01-29T14:28:29;7.50;;;4.80;;
25609;SDS011;13479;49.044;8.716;2023-01-29T14:30:57;6.83;;;4.70;;
25609;SDS011;13479;49.044;8.716;2023-01-29T14:33:36;7.77;;;5.23;;
25609;SDS011;13479;49.044;8.716;2023-01-29T14:36:04;7.17;;;4.27;;
25609;SDS011;13479;49.044;8.716;2023-01-29T14:38:35;8.33;;;4.67;;
25609;SDS011;13479;49.044;8.716;2023-01-29T14:41:02;6.90;;;4.50;;
25609;SDS011;13479;49.044;8.716;2023-01-29T14:43:33;7.40;;;4.70;;
25609;SDS011;13479;49.044;8.716;2023-01-29T14:46:41;6.07;;;4.10;;
25609;SDS011;13479;49.044;8.716;2023-01-29T14:48:59;7.00;;;4.40;;
25609;SDS011;13479;49.044;8.716;2023-01-29T14:51:25;9.60;;;4.70;;
25609;SDS011;13479;49.044;8.716;2023-01-29T14:53:57;6.90;;;4.80;;
25609;SDS011;13479;49.044;8.716;2023-01-29T14:56:28;10.70;;;4.20;;
25609;SDS011;13479;49.044;8.716;2023-01-29T15:01:51;8.13;;;4.67;;
25609;SDS011;13479;49.044;8.716;2023-01-29T15:04:21;8.40;;;4.60;;
25609;SDS011;13479;49.044;8.716;2023-01-29T15:06:56;7.60;;;4.23;;
25609;SDS011;13479;49.044;8.716;2023-01-29T15:09:34;8.93;;;5.27;;
25609;SDS011;13479;49.044;8.716;2023-01-29T15:17:24;7.27;;;4.53;;
25609;SDS011;13479;49.044;8.716;2023-01-29T15:19:54;7.83;;;4.67;;
25609;SDS011;13479;49.044;8.716;2023-01-29T15:22:21;8.53;;;5.23;;
25609;SDS011;13479;49.044;8.716;2023-01-29T15:25:04;6.67;;;4.37;;
25609;SDS011;13479;49.044;8.716;2023-01-29T15:27:45;9.03;;;4.73;;
25609;SDS011;13479;49.044;8.716;2023-01-29T15:30:14;9.23;;;4.57;;
25609;SDS011;13479;49.044;8.716;2023-01-29T15:32:42;6.93;;;4.70;;
25609;SDS011;13479;49.044;8.716;2023-01-29T15:35:14;9.33;;;4.90;;
25609;SDS011;13479;49.044;8.716;2023-01-29T15:37:42;7.50;;;4.70;;
25609;SDS011;13479;49.044;8.716;2023-01-29T15:40:21;8.17;;;5.10;;
25609;SDS011;13479;49.044;8.716;2023-01-29T15:42:46;9.67;;;4.83;;
25609;SDS011;13479;49.044;8.716;2023-01-29T15:47:54;7.40;;;4.70;;
25609;SDS011;13479;49.044;8.716;2023-01-29T15:50:25;6.23;;;4.30;;
25609;SDS011;13479;49.044;8.716;2023-01-29T15:52:51;8.33;;;4.80;;
25609;SDS011;13479;49.044;8.716;2023-01-29T15:55:18;11.23;;;5.30;;
25609;SDS011;13479;49.044;8.716;2023-01-29T15:57:47;7.83;;;5.17;;
25609;SDS011;13479;49.044;8.716;2023-01-29T16:00:19;8.03;;;4.63;;
25609;SDS011;13479;49.044;8.716;2023-01-29T16:02:47;8.63;;;5.27;;
25609;SDS011;13479;49.044;8.716;2023-01-29T16:05:15;9.33;;;5.17;;
25609;SDS011;13479;49.044;8.716;2023-01-29T16:07:42;8.80;;;4.97;;
25609;SDS011;13479;49.044;8.716;2023-01-29T16:10:16;8.97;;;5.30;;
25609;SDS011;13479;49.044;8.716;2023-01-29T16:12:42;9.60;;;5.20;;
25609;SDS011;13479;49.044;8.716;2023-01-29T16:15:13;10.70;;;6.13;;
25609;SDS011;13479;49.044;8.716;2023-01-29T16:17:45;9.43;;;5.37;;
25609;SDS011;13479;49.044;8.716;2023-01-29T16:23:15;10.93;;;5.93;;
25609;SDS011;13479;49.044;8.716;2023-01-29T16:25:43;11.73;;;6.07;;
25609;SDS011;13479;49.044;8.716;2023-01-29T16:28:08;11.23;;;6.23;;
25609;SDS011;13479;49.044;8.716;2023-01-29T16:30:35;14.27;;;6.63;;
25609;SDS011;13479;49.044;8.716;2023-01-29T16:33:02;11.47;;;6.60;;
25609;SDS011;13479;49.044;8.716;2023-01-29T16:35:30;11.93;;;6.67;;
25609;SDS011;13479;49.044;8.716;2023-01-29T16:37:58;12.70;;;7.23;;
25609;SDS011;13479;49.044;8.716;2023-01-29T16:45:41;18.87;;;8.60;;
25609;SDS011;13479;49.044;8.716;2023-01-29T16:48:25;16.93;;;9.17;;
25609;SDS011;13479;49.044;8.716;2023-01-29T16:51:11;17.33;;;9.63;;
25609;SDS011;13479;49.044;8.716;2023-01-29T16:53:38;14.40;;;8.03;;
25609;SDS011;13479;49.044;8.716;2023-01-29T16:56:07;13.47;;;7.70;;
25609;SDS011;13479;49.044;8.716;2023-01-29T16:58:33;12.53;;;7.37;;
25609;SDS011;13479;49.044;8.716;2023-01-29T17:01:08;10.87;;;6.70;;
25609;SDS011;13479;49.044;8.716;2023-01-29T17:03:34;11.70;;;6.40;;
25609;SDS011;13479;49.044;8.716;2023-01-29T17:06:08;15.50;;;7.47;;
25609;SDS011;13479;49.044;8.716;2023-01-29T17:08:42;14.17;;;6.60;;
25609;SDS011;13479;49.044;8.716;2023-01-29T17:11:08;12.33;;;6.50;;
25609;SDS011;13479;49.044;8.716;2023-01-29T17:13:40;10.67;;;5.67;;
25609;SDS011;13479;49.044;8.716;2023-01-29T17:18:56;11.13;;;5.97;;
25609;SDS011;13479;49.044;8.716;2023-01-29T17:21:23;10.57;;;5.37;;
25609;SDS011;13479;49.044;8.716;2023-01-29T17:23:48;12.27;;;6.43;;
25609;SDS011;13479;49.044;8.716;2023-01-29T17:26:14;12.93;;;6.63;;
25609;SDS011;13479;49.044;8.716;2023-01-29T17:28:40;13.10;;;6.97;;
25609;SDS011;13479;49.044;8.716;2023-01-29T17:31:06;13.67;;;7.00;;
25609;SDS011;13479;49.044;8.716;2023-01-29T17:33:32;13.73;;;7.20;;
25609;SDS011;13479;49.044;8.716;2023-01-29T17:35:58;13.53;;;6.60;;
25609;SDS011;13479;49.044;8.716;2023-01-29T17:38:23;16.27;;;7.73;;
25609;SDS011;13479;49.044;8.716;2023-01-29T17:43:17;18.90;;;8.70;;
25609;SDS011;13479;49.044;8.716;2023-01-29T17:45:42;15.17;;;8.60;;
25609;SDS011;13479;49.044;8.716;2023-01-29T17:48:21;17.50;;;8.73;;
25609;SDS011;13479;49.044;8.716;2023-01-29T17:50:47;16.27;;;7.77;;
25609;SDS011;13479;49.044;8.716;2023-01-29T17:53:15;19.47;;;9.10;;
25609;SDS011;13479;49.044;8.716;2023-01-29T17:55:40;17.30;;;9.10;;
25609;SDS011;13479;49.044;8.716;2023-01-29T17:58:08;14.60;;;7.57;;
25609;SDS011;13479;49.044;8.716;2023-01-29T18:00:41;15.20;;;8.70;;
25609;SDS011;13479;49.044;8.716;2023-01-29T18:03:06;17.80;;;9.57;;
25609;SDS011;13479;49.044;8.716;2023-01-29T18:05:32;19.03;;;9.60;;
25609;SDS011;13479;49.044;8.716;2023-01-29T18:07:57;18.30;;;10.03;;
25609;SDS011;13479;49.044;8.716;2023-01-29T18:10:23;19.63;;;10.67;;
25609;SDS011;13479;49.044;8.716;2023-01-29T18:12:48;20.37;;;10.37;;
25609;SDS011;13479;49.044;8.716;2023-01-29T18:15:13;21.10;;;10.17;;
25609;SDS011;13479;49.044;8.716;2023-01-29T18:17:39;22.43;;;10.93;;
25609;SDS011;13479;49.044;8.716;2023-01-29T18:20:18;28.70;;;13.57;;
25609;SDS011;13479;49.044;8.716;2023-01-29T18:22:45;26.83;;;12.23;;
25609;SDS011;13479;49.044;8.716;2023-01-29T18:25:11;26.10;;;11.67;;
25609;SDS011;13479;49.044;8.716;2023-01-29T18:27:37;26.40;;;11.87;;
25609;SDS011;13479;49.044;8.716;2023-01-29T18:30:03;21.63;;;10.97;;
25609;SDS011;13479;49.044;8.716;2023-01-29T18:32:29;18.60;;;9.83;;
25609;SDS011;13479;49.044;8.716;2023-01-29T18:34:54;17.30;;;8.83;;
25609;SDS011;13479;49.044;8.716;2023-01-29T18:37:19;20.07;;;9.63;;
25609;SDS011;13479;49.044;8.716;2023-01-29T18:39:45;21.00;;;10.93;;
25609;SDS011;13479;49.044;8.716;2023-01-29T18:42:10;20.73;;;10.60;;
25609;SDS011;13479;49.044;8.716;2023-01-29T18:44:35;22.30;;;10.30;;
25609;SDS011;13479;49.044;8.716;2023-01-29T18:47:00;18.47;;;10.00;;
25609;SDS011;13479;49.044;8.716;2023-01-29T18:49:26;16.10;;;8.80;;
25609;SDS011;13479;49.044;8.716;2023-01-29T18:51:51;23.07;;;10.53;;
25609;SDS011;13479;49.044;8.716;2023-01-29T18:56:45;19.40;;;9.90;;
25609;SDS011;13479;49.044;8.716;2023-01-29T18:59:10;23.10;;;10.10;;
25609;SDS011;13479;49.044;8.716;2023-01-29T19:01:36;20.73;;;10.53;;
25609;SDS011;13479;49.044;8.716;2023-01-29T19:04:01;18.73;;;9.77;;
25609;SDS011;13479;49.044;8.716;2023-01-29T19:06:26;19.07;;;9.97;;
25609;SDS011;13479;49.044;8.716;2023-01-29T19:08:52;22.50;;;10.80;;
25609;SDS011;13479;49.044;8.716;2023-01-29T19:11:17;19.17;;;9.70;;
25609;SDS011;13479;49.044;8.716;2023-01-29T19:13:42;19.70;;;9.73;;
25609;SDS011;13479;49.044;8.716;2023-01-29T19:16:08;23.53;;;11.10;;
25609;SDS011;13479;49.044;8.716;2023-01-29T19:18:35;20.40;;;11.13;;
25609;SDS011;13479;49.044;8.716;2023-01-29T19:21:04;20.90;;;11.17;;
25609;SDS011;13479;49.044;8.716;2023-01-29T19:23:31;23.20;;;12.00;;
25609;SDS011;13479;49.044;8.716;2023-01-29T19:25:56;22.73;;;11.77;;
25609;SDS011;13479;49.044;8.716;2023-01-29T19:28:22;23.13;;;11.47;;
25609;SDS011;13479;49.044;8.716;2023-01-29T19:30:47;25.37;;;11.73;;
25609;SDS011;13479;49.044;8.716;2023-01-29T19:33:12;21.27;;;10.97;;
25609;SDS011;13479;49.044;8.716;2023-01-29T19:35:37;24.73;;;11.67;;
25609;SDS011;13479;49.044;8.716;2023-01-29T19:38:03;24.07;;;12.40;;
25609;SDS011;13479;49.044;8.716;2023-01-29T19:40:28;27.53;;;12.47;;
25609;SDS011;13479;49.044;8.716;2023-01-29T19:42:53;24.67;;;12.13;;
25609;SDS011;13479;49.044;8.716;2023-01-29T19:45:20;26.00;;;13.10;;
25609;SDS011;13479;49.044;8.716;2023-01-29T19:47:49;25.27;;;12.40;;
25609;SDS011;13479;49.044;8.716;2023-01-29T19:50:16;26.67;;;12.30;;
25609;SDS011;13479;49.044;8.716;2023-01-29T19:52:41;26.87;;;13.03;;
25609;SDS011;13479;49.044;8.716;2023-01-29T19:55:06;25.87;;;12.33;;
25609;SDS011;13479;49.044;8.716;2023-01-29T19:57:32;24.77;;;12.40;;
25609;SDS011;13479;49.044;8.716;2023-01-29T19:59:58;22.53;;;11.30;;
25609;SDS011;13479;49.044;8.716;2023-01-29T20:02:25;27.77;;;12.47;;
25609;SDS011;13479;49.044;8.716;2023-01-29T20:04:52;27.03;;;12.47;;
25609;SDS011;13479;49.044;8.716;2023-01-29T20:07:17;25.83;;;12.43;;
25609;SDS011;13479;49.044;8.716;2023-01-29T20:09:46;24.87;;;11.83;;
25609;SDS011;13479;49.044;8.716;2023-01-29T20:12:12;23.47;;;11.70;;
25609;SDS011;13479;49.044;8.716;2023-01-29T20:14:39;26.93;;;12.10;;
25609;SDS011;13479;49.044;8.716;2023-01-29T20:17:09;27.57;;;13.47;;
25609;SDS011;13479;49.044;8.716;2023-01-29T20:19:35;24.43;;;12.83;;
25609;SDS011;13479;49.044;8.716;2023-01-29T20:22:00;29.73;;;13.37;;
25609;SDS011;13479;49.044;8.716;2023-01-29T20:24:25;25.17;;;12.03;;
25609;SDS011;13479;49.044;8.716;2023-01-29T20:26:52;23.27;;;11.77;;
25609;SDS011;13479;49.044;8.716;2023-01-29T20:29:18;26.20;;;13.20;;
25609;SDS011;13479;49.044;8.716;2023-01-29T20:31:43;23.67;;;11.30;;
25609;SDS011;13479;49.044;8.716;2023-01-29T20:34:08;24.37;;;11.97;;
25609;SDS011;13479;49.044;8.716;2023-01-29T20:36:34;27.23;;;11.97;;
25609;SDS011;13479;49.044;8.716;2023-01-29T20:38:59;28.03;;;13.77;;
25609;SDS011;13479;49.044;8.716;2023-01-29T20:41:24;25.50;;;12.37;;
25609;SDS011;13479;49.044;8.716;2023-01-29T20:43:50;26.33;;;12.37;;
25609;SDS011;13479;49.044;8.716;2023-01-29T20:46:15;23.83;;;12.17;;
25609;SDS011;13479;49.044;8.716;2023-01-29T20:48:41;27.50;;;12.10;;
25609;SDS011;13479;49.044;8.716;2023-01-29T20:51:08;22.27;;;10.87;;
25609;SDS011;13479;49.044;8.716;2023-01-29T20:53:37;22.33;;;11.50;;
25609;SDS011;13479;49.044;8.716;2023-01-29T20:56:02;26.23;;;13.00;;
25609;SDS011;13479;49.044;8.716;2023-01-29T20:58:28;26.73;;;12.60;;
25609;SDS011;13479;49.044;8.716;2023-01-29T21:00:53;22.67;;;11.87;;
25609;SDS011;13479;49.044;8.716;2023-01-29T21:03:18;23.77;;;11.03;;
25609;SDS011;13479;49.044;8.716;2023-01-29T21:05:44;22.20;;;11.13;;
25609;SDS011;13479;49.044;8.716;2023-01-29T21:08:09;22.87;;;11.97;;
25609;SDS011;13479;49.044;8.716;2023-01-29T21:10:35;18.60;;;9.43;;
25609;SDS011;13479;49.044;8.716;2023-01-29T21:13:01;24.47;;;11.93;;
25609;SDS011;13479;49.044;8.716;2023-01-29T21:15:26;21.53;;;11.03;;
25609;SDS011;13479;49.044;8.716;2023-01-29T21:17:52;23.27;;;10.63;;
25609;SDS011;13479;49.044;8.716;2023-01-29T21:20:17;24.10;;;10.37;;
25609;SDS011;13479;49.044;8.716;2023-01-29T21:22:43;22.40;;;11.33;;
25609;SDS011;13479;49.044;8.716;2023-01-29T21:25:08;23.43;;;11.40;;
25609;SDS011;13479;49.044;8.716;2023-01-29T21:27:34;22.77;;;11.23;;
25609;SDS011;13479;49.044;8.716;2023-01-29T21:29:59;22.07;;;10.97;;
25609;SDS011;13479;49.044;8.716;2023-01-29T21:32:25;20.30;;;10.47;;
25609;SDS011;13479;49.044;8.716;2023-01-29T21:34:52;21.20;;;11.43;;
25609;SDS011;13479;49.044;8.716;2023-01-29T21:37:17;23.17;;;11.20;;
25609;SDS011;13479;49.044;8.716;2023-01-29T21:39:42;20.17;;;10.47;;
25609;SDS011;13479;49.044;8.716;2023-01-29T21:42:08;22.00;;;11.43;;
25609;SDS011;13479;49.044;8.716;2023-01-29T21:44:52;20.70;;;11.33;;